In Rescue
 
Open Full Screen Window  High Contrast Mode
Wind Gusting 00 knots
03
April 03, 2020 1:19 AM EDT
Weather Information
Wind Direction
  330 °
Wind Speed
  03 kt (3 mph)
Wind Gust
  00 kt (0 mph)
Altimeter
30.11 in
Visibility
10 SM
Temperature
04° C
39° F
Dewpoint
01° C
34° F
Humidity
81%
Sky Condition
Clear
VFR

METAR KAMN 030519Z AUTO 33003KT 10SM CLR 04/01 A3011 RMK AO2 T00390005

FAA Disclaimer: The data displayed is for advisory purposes only and is not to be used for flight planning or operations.